Time;durP1;ratioP1;P1;durP2;ratioP2;P2;SDS_P1;SDS_P2;PMS_P1;PMS_P2;Temp;Humidity;BMP_temperature;BMP_pressure;BME280_temperature;BME280_humidity;BME280_pressure;Samples;Min_cycle;Max_cycle;Signal;HPM_P1;HPM_P2
2022/12/25 00:02:13;;;;;;;;;;;;;;;;;;6271133;22;19986;-47
2022/12/25 00:04:40;;;;;;;;;;;;;;;;;;6270757;22;20264;-47
2022/12/25 00:07:07;;;;;;;;;;;;;;;;;;6270349;22;19997;-50
2022/12/25 00:09:41;;;;;;;;;;;;;;;;;;6268000;22;19919;-46
2022/12/25 00:12:08;;;;;;;;;;;;;;;;;;6243678;22;19973;-47
2022/12/25 00:14:42;;;;;;;;;;;;;;;;;;6270947;22;20308;-46
2022/12/25 00:17:09;;;;;;;;;;;;;;;;;;6267793;22;20403;-62
2022/12/25 00:19:36;;;;;;;;;;;;;;;;;;6270680;22;20002;-62
2022/12/25 00:22:10;;;;;;;;;;;;;;;;;;6269791;22;20315;-62
2022/12/25 00:24:37;;;;;;;;;;;;;;;;;;6267691;22;19958;-61
2022/12/25 00:27:04;;;;;;;;;;;;;;;;;;6269507;22;19926;-62
2022/12/25 00:29:38;;;;;;;;;;;;;;;;;;6270197;22;19927;-62
2022/12/25 00:32:05;;;;;;;;;;;;;;;;;;6269340;22;20316;-61
2022/12/25 00:34:32;;;;;;;;;;;;;;;;;;6269895;22;19953;-62
2022/12/25 00:37:05;;;;;;;;;;;;;;;;;;6269305;22;20002;-62
2022/12/25 00:39:32;;;;;;;;;;;;;;;;;;6269501;22;19923;-56
2022/12/25 00:42:19;;;;;;;;;;;;;;;;;;6270496;22;19997;-55
2022/12/25 00:44:46;;;;;;;;;;;;;;;;;;6270237;22;19919;-55
2022/12/25 00:47:20;;;;;;;;;;;;;;;;;;6269508;22;19941;-55
2022/12/25 00:49:47;;;;;;;;;;;;;;;;;;6268313;22;19923;-56
2022/12/25 00:52:14;;;;;;;;;;;;;;;;;;6269797;22;19959;-56
2022/12/25 00:54:47;;;;;;;;;;;;;;;;;;6268779;22;19925;-61
2022/12/25 00:57:14;;;;;;;;;;;;;;;;;;6267427;22;20045;-62
2022/12/25 00:59:48;;;;;;;;;;;;;;;;;;6268577;22;20573;-62
2022/12/25 01:02:25;;;;;;;;;;;;;;;;;;6268050;22;20325;-62
2022/12/25 01:04:59;;;;;;;;;;;;;;;;;;6269407;22;19915;-62
2022/12/25 01:07:26;;;;;;;;;;;;;;;;;;6268865;22;20323;-62
2022/12/25 01:12:45;;;;;;;;;;;;;;;;;;6270497;22;19919;-48
2022/12/25 01:15:19;;;;;;;;;;;;;;;;;;6268598;22;19916;-51
2022/12/25 01:17:46;;;;;;;;;;;;;;;;;;6269264;22;19916;-54
2022/12/25 01:20:20;;;;;;;;;;;;;;;;;;6270351;22;19947;-51
2022/12/25 01:22:47;;;;;;;;;;;;;;;;;;6269338;22;20606;-53
2022/12/25 01:25:14;;;;;;;;;;;;;;;;;;6269416;22;19994;-55
2022/12/25 01:27:47;;;;;;;;;;;;;;;;;;6269871;22;20506;-53
2022/12/25 01:30:15;;;;;;;;;;;;;;;;;;6269263;22;20009;-54
2022/12/25 01:32:48;;;;;;;;;;;;;;;;;;6270988;22;19919;-59
2022/12/25 01:35:15;;;;;;;;;;;;;;;;;;6268743;22;19958;-61
2022/12/25 01:37:42;;;;;;;;;;;;;;;;;;6270357;22;19942;-61
2022/12/25 01:40:16;;;;;;;;;;;;;;;;;;6269630;22;19997;-61
2022/12/25 01:42:43;;;;;;;;;;;;;;;;;;6269958;22;20108;-61
2022/12/25 01:45:18;;;;;;;;;;;;;;;;;;6269157;22;20368;-61
2022/12/25 01:47:45;;;;;;;;;;;;;;;;;;6271486;22;19915;-61
2022/12/25 01:50:12;;;;;;;;;;;;;;;;;;6269197;22;20333;-46
2022/12/25 01:52:45;;;;;;;;;;;;;;;;;;6270549;22;19922;-63
2022/12/25 01:55:13;;;;;;;;;;;;;;;;;;6269695;22;19999;-64
2022/12/25 01:57:40;;;;;;;;;;;;;;;;;;6270501;22;20695;-63
2022/12/25 02:00:15;;;;;;;;;;;;;;;;;;6269959;22;20009;-63
2022/12/25 02:02:42;;;;;;;;;;;;;;;;;;6269641;22;19947;-63
2022/12/25 02:05:23;;;;;;;;;;;;;;;;;;6268925;22;19922;-63
2022/12/25 02:07:50;;;;;;;;;;;;;;;;;;6268839;22;19947;-61
2022/12/25 02:10:24;;;;;;;;;;;;;;;;;;6271663;22;19954;-48
2022/12/25 02:12:51;;;;;;;;;;;;;;;;;;6271881;22;19995;-61
2022/12/25 02:15:18;;;;;;;;;;;;;;;;;;6270810;22;19923;-61
2022/12/25 02:17:51;;;;;;;;;;;;;;;;;;6269964;22;19937;-62
2022/12/25 02:20:18;;;;;;;;;;;;;;;;;;6271061;22;20201;-61
2022/12/25 02:22:52;;;;;;;;;;;;;;;;;;6270151;22;20164;-62
2022/12/25 02:25:19;;;;;;;;;;;;;;;;;;6271916;22;19922;-61
2022/12/25 02:27:54;;;;;;;;;;;;;;;;;;6271665;22;19939;-61
2022/12/25 02:30:21;;;;;;;;;;;;;;;;;;6268538;22;19919;-46
2022/12/25 02:34:01;;;;;;;;;;;;;;;;;;6271280;22;20391;-51
2022/12/25 02:35:42;;;;;;;;;;;;;;;;;;6271629;22;19962;-46
2022/12/25 02:38:16;;;;;;;;;;;;;;;;;;6270217;22;19989;-47
2022/12/25 02:40:43;;;;;;;;;;;;;;;;;;6270411;22;19962;-46
2022/12/25 03:08:47;;;;;;;;;;;;;;;;;;6272770;22;19915;-52
2022/12/25 03:11:29;;;;;;;;;;;;;;;;;;6270620;22;20388;-57
2022/12/25 03:16:49;;;;;;;;;;;;;;;;;;6270672;22;19919;-52
2022/12/25 03:16:52;;;;;;;;;;;;;;;;;;6270912;22;19994;-50
2022/12/25 03:27:50;;;;;;;;;;;;;;;;;;6271570;22;20419;-51
2022/12/25 03:33:09;;;;;;;;;;;;;;;;;;6271035;22;19923;-47
2022/12/25 03:36:05;;;;;;;;;;;;;;;;;;6271590;22;19922;-49
2022/12/25 03:44:31;;;;;;;;;;;;;;;;;;6270831;22;20309;-51
2022/12/25 04:37:58;;;;;;;;;;;;;;;;;;6237729;23;19990;-62
2022/12/25 04:40:31;;;;;;;;;;;;;;;;;;6237874;23;19998;-63
2022/12/25 04:42:59;;;;;;;;;;;;;;;;;;6237345;23;19924;-62
2022/12/25 04:45:33;;;;;;;;;;;;;;;;;;6238685;23;20360;-62
2022/12/25 04:48:00;;;;;;;;;;;;;;;;;;6238174;23;19997;-62
2022/12/25 04:50:27;;;;;;;;;;;;;;;;;;6239850;23;19994;-63
2022/12/25 04:53:01;;;;;;;;;;;;;;;;;;6238351;23;19966;-53
2022/12/25 04:55:28;;;;;;;;;;;;;;;;;;6240280;23;19915;-61
2022/12/25 04:57:55;;;;;;;;;;;;;;;;;;6240178;23;20018;-61
2022/12/25 05:00:28;;;;;;;;;;;;;;;;;;6239663;23;19999;-61
2022/12/25 05:02:56;;;;;;;;;;;;;;;;;;6239076;23;20316;-62
2022/12/25 05:05:30;;;;;;;;;;;;;;;;;;6238511;23;20013;-61
2022/12/25 05:07:57;;;;;;;;;;;;;;;;;;6238723;23;20002;-60
2022/12/25 05:10:24;;;;;;;;;;;;;;;;;;6238929;23;19919;-62
2022/12/25 05:12:58;;;;;;;;;;;;;;;;;;6238585;23;19915;-59
2022/12/25 05:15:25;;;;;;;;;;;;;;;;;;6238198;23;20294;-51
2022/12/25 05:17:59;;;;;;;;;;;;;;;;;;6256505;22;19930;-50
2022/12/25 05:20:26;;;;;;;;;;;;;;;;;;6268170;22;19969;-57
2022/12/25 05:22:53;;;;;;;;;;;;;;;;;;6268655;22;19954;-49
2022/12/25 05:25:26;;;;;;;;;;;;;;;;;;6270680;22;19939;-51
2022/12/25 05:27:54;;;;;;;;;;;;;;;;;;6270874;22;20309;-53
2022/12/25 05:30:28;;;;;;;;;;;;;;;;;;6269463;22;19990;-53
2022/12/25 05:32:55;;;;;;;;;;;;;;;;;;6270210;22;20337;-63
2022/12/25 05:35:22;;;;;;;;;;;;;;;;;;6269815;22;19994;-64
2022/12/25 05:37:56;;;;;;;;;;;;;;;;;;6269909;22;20273;-63
2022/12/25 05:40:23;;;;;;;;;;;;;;;;;;6269468;22;20001;-64
2022/12/25 05:42:50;;;;;;;;;;;;;;;;;;6269432;22;20303;-63
2022/12/25 05:45:24;;;;;;;;;;;;;;;;;;6271290;22;19937;-64
2022/12/25 05:47:51;;;;;;;;;;;;;;;;;;6270649;22;20300;-64
2022/12/25 05:50:25;;;;;;;;;;;;;;;;;;6270732;22;19921;-54
2022/12/25 05:52:52;;;;;;;;;;;;;;;;;;6268900;22;19923;-63
2022/12/25 05:55:19;;;;;;;;;;;;;;;;;;6267389;22;19990;-62
2022/12/25 05:57:53;;;;;;;;;;;;;;;;;;6268811;22;19922;-63
2022/12/25 06:00:20;;;;;;;;;;;;;;;;;;6269741;22;19919;-62
2022/12/25 06:02:54;;;;;;;;;;;;;;;;;;6268593;22;19993;-62
2022/12/25 06:05:21;;;;;;;;;;;;;;;;;;6267250;22;20287;-62
2022/12/25 06:07:48;;;;;;;;;;;;;;;;;;6268519;22;20022;-63
2022/12/25 06:10:22;;;;;;;;;;;;;;;;;;6269094;22;20496;-63
2022/12/25 06:12:49;;;;;;;;;;;;;;;;;;6269449;22;19994;-63
2022/12/25 06:15:16;;;;;;;;;;;;;;;;;;6269681;22;20307;-63
2022/12/25 06:17:49;;;;;;;;;;;;;;;;;;6267634;22;20350;-63
2022/12/25 06:20:17;;;;;;;;;;;;;;;;;;6268534;22;20034;-63
2022/12/25 06:22:51;;;;;;;;;;;;;;;;;;6267725;22;19926;-63
2022/12/25 06:25:18;;;;;;;;;;;;;;;;;;6269610;22;19919;-62
2022/12/25 06:27:45;;;;;;;;;;;;;;;;;;6267995;22;19942;-63
2022/12/25 06:30:18;;;;;;;;;;;;;;;;;;6268375;22;19915;-49
2022/12/25 06:32:46;;;;;;;;;;;;;;;;;;6269796;22;19961;-48
2022/12/25 06:35:20;;;;;;;;;;;;;;;;;;6268587;22;19926;-47
2022/12/25 06:37:47;;;;;;;;;;;;;;;;;;6267747;22;19994;-48
2022/12/25 06:40:14;;;;;;;;;;;;;;;;;;6267886;22;19954;-48
2022/12/25 06:42:48;;;;;;;;;;;;;;;;;;6265962;22;19938;-47
2022/12/25 06:45:15;;;;;;;;;;;;;;;;;;6267087;22;19919;-51
2022/12/25 06:47:49;;;;;;;;;;;;;;;;;;6267813;22;20391;-50
2022/12/25 06:50:16;;;;;;;;;;;;;;;;;;6268053;22;19926;-55
2022/12/25 06:52:43;;;;;;;;;;;;;;;;;;6269555;22;20031;-55
2022/12/25 06:55:17;;;;;;;;;;;;;;;;;;6268256;22;20407;-56
2022/12/25 06:57:44;;;;;;;;;;;;;;;;;;6269489;22;19915;-57
2022/12/25 07:00:11;;;;;;;;;;;;;;;;;;6269859;22;19977;-50
2022/12/25 07:02:45;;;;;;;;;;;;;;;;;;6270830;22;19915;-62
2022/12/25 07:05:12;;;;;;;;;;;;;;;;;;6269762;22;20399;-63
2022/12/25 07:07:46;;;;;;;;;;;;;;;;;;6271255;22;19993;-62
2022/12/25 07:10:13;;;;;;;;;;;;;;;;;;6271065;22;19986;-62
2022/12/25 07:12:40;;;;;;;;;;;;;;;;;;6268259;22;19946;-63
2022/12/25 07:15:14;;;;;;;;;;;;;;;;;;6269409;22;19919;-63
2022/12/25 07:17:41;;;;;;;;;;;;;;;;;;6268046;22;19919;-61
2022/12/25 07:20:08;;;;;;;;;;;;;;;;;;6269700;22;19965;-59
2022/12/25 07:22:42;;;;;;;;;;;;;;;;;;6271403;22;19926;-47
2022/12/25 07:25:09;;;;;;;;;;;;;;;;;;6269498;22;19925;-52
2022/12/25 07:27:36;;;;;;;;;;;;;;;;;;6270875;22;20258;-48
2022/12/25 07:30:09;;;;;;;;;;;;;;;;;;6269329;22;20018;-51
2022/12/25 07:32:37;;;;;;;;;;;;;;;;;;6270991;22;20026;-51
2022/12/25 07:35:15;;;;;;;;;;;;;;;;;;6269165;22;19919;-49
2022/12/25 07:37:42;;;;;;;;;;;;;;;;;;6269049;22;20026;-53
2022/12/25 07:40:09;;;;;;;;;;;;;;;;;;6269488;22;20167;-64
2022/12/25 07:42:44;;;;;;;;;;;;;;;;;;6268488;22;19926;-48
2022/12/25 07:45:11;;;;;;;;;;;;;;;;;;6270683;22;19981;-47
2022/12/25 07:47:45;;;;;;;;;;;;;;;;;;6269615;22;19925;-51
2022/12/25 07:50:12;;;;;;;;;;;;;;;;;;6271060;22;20382;-48
2022/12/25 07:52:39;;;;;;;;;;;;;;;;;;6269058;22;19958;-48
2022/12/25 07:55:13;;;;;;;;;;;;;;;;;;6268676;22;20006;-48
2022/12/25 07:57:40;;;;;;;;;;;;;;;;;;6268730;22;19919;-47
2022/12/25 08:00:07;;;;;;;;;;;;;;;;;;6268950;22;19918;-48
2022/12/25 08:02:41;;;;;;;;;;;;;;;;;;6266245;22;20443;-49
2022/12/25 08:05:08;;;;;;;;;;;;;;;;;;6266846;22;20305;-49
2022/12/25 08:07:42;;;;;;;;;;;;;;;;;;6268030;22;19998;-51
2022/12/25 08:10:09;;;;;;;;;;;;;;;;;;6270306;22;20001;-50
2022/12/25 08:12:36;;;;;;;;;;;;;;;;;;6269319;22;19981;-46
2022/12/25 08:15:10;;;;;;;;;;;;;;;;;;6269074;22;19958;-60
2022/12/25 08:17:37;;;;;;;;;;;;;;;;;;6268555;22;19951;-51
2022/12/25 08:20:04;;;;;;;;;;;;;;;;;;6269546;22;19969;-52
2022/12/25 08:22:44;;;;;;;;;;;;;;;;;;6270007;22;19993;-48
2022/12/25 08:25:11;;;;;;;;;;;;;;;;;;6268751;22;19997;-47
2022/12/25 08:27:45;;;;;;;;;;;;;;;;;;6270701;22;19961;-47
2022/12/25 08:30:12;;;;;;;;;;;;;;;;;;6267643;22;20002;-53
2022/12/25 08:32:39;;;;;;;;;;;;;;;;;;6269520;22;20252;-48
2022/12/25 08:35:12;;;;;;;;;;;;;;;;;;6270652;22;19922;-52
2022/12/25 08:37:39;;;;;;;;;;;;;;;;;;6270109;22;19945;-51
2022/12/25 08:40:13;;;;;;;;;;;;;;;;;;6268380;22;20396;-55
2022/12/25 08:42:40;;;;;;;;;;;;;;;;;;6269718;22;19962;-50
2022/12/25 08:45:07;;;;;;;;;;;;;;;;;;6269925;22;19926;-48
2022/12/25 08:47:41;;;;;;;;;;;;;;;;;;6268498;22;19995;-53
2022/12/25 08:50:08;;;;;;;;;;;;;;;;;;6268431;22;19954;-46
2022/12/25 08:52:35;;;;;;;;;;;;;;;;;;6266756;22;19998;-48
2022/12/25 08:55:09;;;;;;;;;;;;;;;;;;6266813;22;19989;-60
2022/12/25 08:57:36;;;;;;;;;;;;;;;;;;6243409;22;19990;-60
2022/12/25 09:00:10;;;;;;;;;;;;;;;;;;6267178;22;20264;-60
2022/12/25 09:02:37;;;;;;;;;;;;;;;;;;6267326;22;19958;-59
2022/12/25 09:05:11;;;;;;;;;;;;;;;;;;6269366;22;19993;-59
2022/12/25 09:07:38;;;;;;;;;;;;;;;;;;6270183;22;19955;-60
2022/12/25 09:10:05;;;;;;;;;;;;;;;;;;6269425;22;19922;-60
2022/12/25 09:12:39;;;;;;;;;;;;;;;;;;6268225;22;20359;-60
2022/12/25 09:15:06;;;;;;;;;;;;;;;;;;6267017;22;19918;-61
2022/12/25 09:17:33;;;;;;;;;;;;;;;;;;6265420;22;19921;-60
2022/12/25 09:20:07;;;;;;;;;;;;;;;;;;6266109;22;19965;-59
2022/12/25 09:22:34;;;;;;;;;;;;;;;;;;6268177;22;19915;-60
2022/12/25 09:25:08;;;;;;;;;;;;;;;;;;6266117;22;19926;-60
2022/12/25 09:27:35;;;;;;;;;;;;;;;;;;6268426;22;19987;-61
2022/12/25 09:30:02;;;;;;;;;;;;;;;;;;6267743;22;19921;-61
2022/12/25 09:32:39;;;;;;;;;;;;;;;;;;6266423;22;19994;-46
2022/12/25 09:35:06;;;;;;;;;;;;;;;;;;6266994;22;20388;-46
2022/12/25 09:37:33;;;;;;;;;;;;;;;;;;6268303;22;19925;-47
2022/12/25 09:40:07;;;;;;;;;;;;;;;;;;6242094;22;19994;-46
2022/12/25 09:42:41;;;;;;;;;;;;;;;;;;6267103;22;20022;-47
2022/12/25 09:45:08;;;;;;;;;;;;;;;;;;6268374;22;19993;-48
2022/12/25 09:47:35;;;;;;;;;;;;;;;;;;6268983;22;20376;-60
2022/12/25 09:50:09;;;;;;;;;;;;;;;;;;6267289;22;19998;-47
2022/12/25 09:52:36;;;;;;;;;;;;;;;;;;6268050;22;20585;-48
2022/12/25 09:55:03;;;;;;;;;;;;;;;;;;6265784;22;19954;-50
2022/12/25 09:57:40;;;;;;;;;;;;;;;;;;6268994;22;19919;-48
2022/12/25 10:00:07;;;;;;;;;;;;;;;;;;6265316;22;19919;-49
2022/12/25 10:02:35;;;;;;;;;;;;;;;;;;6267280;22;19990;-48
2022/12/25 10:05:09;;;;;;;;;;;;;;;;;;6267032;22;19961;-53
2022/12/25 10:07:43;;;;;;;;;;;;;;;;;;6268225;22;20027;-59
2022/12/25 10:10:16;;;;;;;;;;;;;;;;;;6267903;22;19994;-62
2022/12/25 10:12:50;;;;;;;;;;;;;;;;;;6266567;22;19958;-63
2022/12/25 10:15:17;;;;;;;;;;;;;;;;;;6266074;22;20337;-63
2022/12/25 10:17:51;;;;;;;;;;;;;;;;;;6266282;22;20438;-63
2022/12/25 10:20:18;;;;;;;;;;;;;;;;;;6269750;22;19923;-62
2022/12/25 10:22:51;;;;;;;;;;;;;;;;;;6269578;22;19927;-63
2022/12/25 10:25:18;;;;;;;;;;;;;;;;;;6267970;22;19923;-62
2022/12/25 10:27:52;;;;;;;;;;;;;;;;;;6265484;22;19938;-63
2022/12/25 10:30:19;;;;;;;;;;;;;;;;;;6268780;22;20006;-62
2022/12/25 10:32:46;;;;;;;;;;;;;;;;;;6266843;22;20348;-63
2022/12/25 10:35:20;;;;;;;;;;;;;;;;;;6265910;22;19915;-62
2022/12/25 10:37:47;;;;;;;;;;;;;;;;;;6267035;22;19993;-63
2022/12/25 10:40:21;;;;;;;;;;;;;;;;;;6269245;22;19919;-63
2022/12/25 10:42:48;;;;;;;;;;;;;;;;;;6268697;22;19915;-49
2022/12/25 10:45:15;;;;;;;;;;;;;;;;;;6268111;22;20248;-61
2022/12/25 10:47:49;;;;;;;;;;;;;;;;;;6266655;22;20304;-60
2022/12/25 10:50:27;;;;;;;;;;;;;;;;;;6269001;22;19919;-61
2022/12/25 10:53:01;;;;;;;;;;;;;;;;;;6263208;22;19923;-60
2022/12/25 10:55:28;;;;;;;;;;;;;;;;;;6266547;22;19954;-63
2022/12/25 10:57:56;;;;;;;;;;;;;;;;;;6266457;22;20638;-60
2022/12/25 11:00:30;;;;;;;;;;;;;;;;;;6262455;22;19962;-62
2022/12/25 11:02:57;;;;;;;;;;;;;;;;;;6231826;22;19919;-51
2022/12/25 11:05:24;;;;;;;;;;;;;;;;;;6263366;22;20426;-61
2022/12/25 11:07:58;;;;;;;;;;;;;;;;;;6265686;22;19965;-61
2022/12/25 11:10:26;;;;;;;;;;;;;;;;;;6266650;22;19973;-61
2022/12/25 11:13:00;;;;;;;;;;;;;;;;;;6263889;22;19994;-61
2022/12/25 11:15:27;;;;;;;;;;;;;;;;;;6263667;22;20002;-61
2022/12/25 11:18:01;;;;;;;;;;;;;;;;;;6259064;22;19930;-61
2022/12/25 11:20:28;;;;;;;;;;;;;;;;;;6263191;22;20351;-60
2022/12/25 11:22:55;;;;;;;;;;;;;;;;;;6263929;22;19919;-61
2022/12/25 11:25:29;;;;;;;;;;;;;;;;;;6266280;22;19999;-61
2022/12/25 11:27:56;;;;;;;;;;;;;;;;;;6264605;22;19919;-61
2022/12/25 11:30:30;;;;;;;;;;;;;;;;;;6259075;22;20479;-61
2022/12/25 11:32:57;;;;;;;;;;;;;;;;;;6262855;22;20585;-61
2022/12/25 11:35:24;;;;;;;;;;;;;;;;;;6262740;22;20025;-60
2022/12/25 11:37:58;;;;;;;;;;;;;;;;;;6262509;22;19961;-47
2022/12/25 11:40:32;;;;;;;;;;;;;;;;;;6239419;22;19925;-59
2022/12/25 11:43:06;;;;;;;;;;;;;;;;;;6240587;22;19919;-59
2022/12/25 11:45:34;;;;;;;;;;;;;;;;;;6265905;22;20230;-59
2022/12/25 11:48:01;;;;;;;;;;;;;;;;;;6263498;22;19923;-58
2022/12/25 11:50:35;;;;;;;;;;;;;;;;;;6259964;22;20034;-61
2022/12/25 11:53:02;;;;;;;;;;;;;;;;;;6261613;22;19997;-60
2022/12/25 11:55:36;;;;;;;;;;;;;;;;;;6264518;22;19925;-54
2022/12/25 11:58:03;;;;;;;;;;;;;;;;;;6265539;22;19918;-55
2022/12/25 12:00:37;;;;;;;;;;;;;;;;;;6265968;22;19919;-62
2022/12/25 12:03:04;;;;;;;;;;;;;;;;;;6263904;22;19919;-62
2022/12/25 12:05:31;;;;;;;;;;;;;;;;;;6259818;22;19923;-62
2022/12/25 12:08:05;;;;;;;;;;;;;;;;;;6261472;22;19919;-62
2022/12/25 12:10:32;;;;;;;;;;;;;;;;;;6260320;22;19982;-62
2022/12/25 12:13:06;;;;;;;;;;;;;;;;;;6260925;22;20730;-63
2022/12/25 12:15:33;;;;;;;;;;;;;;;;;;6262609;22;19919;-56
2022/12/25 12:18:00;;;;;;;;;;;;;;;;;;6262766;22;19919;-61
2022/12/25 12:20:34;;;;;;;;;;;;;;;;;;6261267;22;19990;-60
2022/12/25 12:23:01;;;;;;;;;;;;;;;;;;6265304;22;19923;-60
2022/12/25 12:25:28;;;;;;;;;;;;;;;;;;6262544;22;20384;-60
2022/12/25 12:28:02;;;;;;;;;;;;;;;;;;6261251;22;19929;-61
2022/12/25 12:30:36;;;;;;;;;;;;;;;;;;6238958;22;19962;-61
2022/12/25 12:33:03;;;;;;;;;;;;;;;;;;6263974;22;19933;-59
2022/12/25 12:35:37;;;;;;;;;;;;;;;;;;6263188;22;19915;-57
2022/12/25 12:38:04;;;;;;;;;;;;;;;;;;6262949;22;19925;-52
2022/12/25 12:40:32;;;;;;;;;;;;;;;;;;6266339;22;19977;-48
2022/12/25 12:43:06;;;;;;;;;;;;;;;;;;6259396;22;20363;-51
2022/12/25 12:45:46;;;;;;;;;;;;;;;;;;6266973;22;20340;-46
2022/12/25 12:48:20;;;;;;;;;;;;;;;;;;6262698;22;19919;-47
2022/12/25 12:50:47;;;;;;;;;;;;;;;;;;6264850;22;20396;-61
2022/12/25 12:53:14;;;;;;;;;;;;;;;;;;6265782;22;20009;-61
2022/12/25 12:55:48;;;;;;;;;;;;;;;;;;6265443;22;19965;-63
2022/12/25 12:58:15;;;;;;;;;;;;;;;;;;6264931;22;19919;-63
2022/12/25 13:00:49;;;;;;;;;;;;;;;;;;6266393;22;19915;-63
2022/12/25 13:03:16;;;;;;;;;;;;;;;;;;6265898;22;19922;-63
2022/12/25 13:05:50;;;;;;;;;;;;;;;;;;6265004;22;19943;-64
2022/12/25 13:08:17;;;;;;;;;;;;;;;;;;6265966;22;19919;-63
2022/12/25 13:10:44;;;;;;;;;;;;;;;;;;6258003;22;20055;-53
2022/12/25 13:13:18;;;;;;;;;;;;;;;;;;6261373;22;20030;-53
2022/12/25 13:15:45;;;;;;;;;;;;;;;;;;6263102;22;20285;-54
2022/12/25 13:18:19;;;;;;;;;;;;;;;;;;6261609;22;19919;-54
2022/12/25 13:20:46;;;;;;;;;;;;;;;;;;6264081;22;19925;-54
2022/12/25 13:23:13;;;;;;;;;;;;;;;;;;6260221;22;20002;-54
2022/12/25 13:25:47;;;;;;;;;;;;;;;;;;6261960;22;20333;-57
2022/12/25 13:28:14;;;;;;;;;;;;;;;;;;6265576;22;19925;-61
2022/12/25 13:30:48;;;;;;;;;;;;;;;;;;6267474;22;19998;-61
2022/12/25 13:33:15;;;;;;;;;;;;;;;;;;6265913;22;20396;-61
2022/12/25 13:35:49;;;;;;;;;;;;;;;;;;6264255;22;19919;-61
2022/12/25 13:38:16;;;;;;;;;;;;;;;;;;6238869;22;20173;-61
2022/12/25 13:42:04;;;;;;;;;;;;;;;;;;6266948;22;19915;-61
2022/12/25 13:43:37;;;;;;;;;;;;;;;;;;6266186;22;19981;-61
2022/12/25 13:46:04;;;;;;;;;;;;;;;;;;6241424;22;20368;-61
2022/12/25 13:48:38;;;;;;;;;;;;;;;;;;6268714;22;20281;-50
2022/12/25 13:51:05;;;;;;;;;;;;;;;;;;6269336;22;19915;-54
2022/12/25 13:53:32;;;;;;;;;;;;;;;;;;6269933;22;20404;-56
2022/12/25 13:56:06;;;;;;;;;;;;;;;;;;6268874;22;19998;-55
2022/12/25 13:58:33;;;;;;;;;;;;;;;;;;6269882;22;19958;-55
2022/12/25 14:01:15;;;;;;;;;;;;;;;;;;6270520;22;19954;-53
2022/12/25 14:03:42;;;;;;;;;;;;;;;;;;6267947;22;20260;-56
2022/12/25 14:06:16;;;;;;;;;;;;;;;;;;6267292;22;19929;-60
2022/12/25 14:08:43;;;;;;;;;;;;;;;;;;6271466;22;19958;-61
2022/12/25 14:11:17;;;;;;;;;;;;;;;;;;6260385;22;20344;-61
2022/12/25 14:13:44;;;;;;;;;;;;;;;;;;6266668;22;19950;-61
2022/12/25 14:16:11;;;;;;;;;;;;;;;;;;6264426;22;20218;-61
2022/12/25 14:18:52;;;;;;;;;;;;;;;;;;6265997;22;19961;-61
2022/12/25 14:21:19;;;;;;;;;;;;;;;;;;6266304;22;19941;-60
2022/12/25 14:23:53;;;;;;;;;;;;;;;;;;6257985;22;20132;-50
2022/12/25 14:26:20;;;;;;;;;;;;;;;;;;6265495;22;19915;-50
2022/12/25 14:28:47;;;;;;;;;;;;;;;;;;6263834;22;20006;-50
2022/12/25 14:31:21;;;;;;;;;;;;;;;;;;6267900;22;19990;-52
2022/12/25 14:33:48;;;;;;;;;;;;;;;;;;6265705;22;20484;-53
2022/12/25 14:36:22;;;;;;;;;;;;;;;;;;6265593;22;19923;-54
2022/12/25 14:38:49;;;;;;;;;;;;;;;;;;6266513;22;20252;-47
2022/12/25 14:41:32;;;;;;;;;;;;;;;;;;6263646;22;20354;-49
2022/12/25 14:43:59;;;;;;;;;;;;;;;;;;6265233;22;19919;-54
2022/12/25 14:46:33;;;;;;;;;;;;;;;;;;6265569;22;19915;-54
2022/12/25 14:49:00;;;;;;;;;;;;;;;;;;6266362;22;20325;-47
2022/12/25 14:51:27;;;;;;;;;;;;;;;;;;6266960;22;20384;-47
2022/12/25 14:54:01;;;;;;;;;;;;;;;;;;6266233;22;19981;-46
2022/12/25 14:56:28;;;;;;;;;;;;;;;;;;6267035;22;20029;-49
2022/12/25 14:59:02;;;;;;;;;;;;;;;;;;6266592;22;20006;-46
2022/12/25 15:01:29;;;;;;;;;;;;;;;;;;6266904;22;19919;-61
2022/12/25 15:04:03;;;;;;;;;;;;;;;;;;6261554;22;19919;-61
2022/12/25 15:06:30;;;;;;;;;;;;;;;;;;6262830;22;20507;-61
2022/12/25 15:08:57;;;;;;;;;;;;;;;;;;6263250;22;19973;-61
2022/12/25 15:11:31;;;;;;;;;;;;;;;;;;6261859;22;19919;-62
2022/12/25 15:14:05;;;;;;;;;;;;;;;;;;6263021;22;19918;-61
2022/12/25 15:16:32;;;;;;;;;;;;;;;;;;6263821;22;19961;-61
2022/12/25 15:19:06;;;;;;;;;;;;;;;;;;6262171;22;20062;-56
2022/12/25 15:21:33;;;;;;;;;;;;;;;;;;6264135;22;19962;-60
2022/12/25 15:24:07;;;;;;;;;;;;;;;;;;6262179;22;20392;-60
2022/12/25 15:26:34;;;;;;;;;;;;;;;;;;6263112;22;19962;-60
2022/12/25 15:29:01;;;;;;;;;;;;;;;;;;6260787;22;19919;-60
2022/12/25 15:31:35;;;;;;;;;;;;;;;;;;6258615;22;19919;-60
2022/12/25 15:34:02;;;;;;;;;;;;;;;;;;6262195;22;20119;-60
2022/12/25 15:36:36;;;;;;;;;;;;;;;;;;6264028;22;20002;-62
2022/12/25 15:39:03;;;;;;;;;;;;;;;;;;6261460;22;19942;-62
2022/12/25 15:44:22;;;;;;;;;;;;;;;;;;6260826;22;20002;-50
2022/12/25 15:46:49;;;;;;;;;;;;;;;;;;6262092;22;19926;-54
2022/12/25 15:49:23;;;;;;;;;;;;;;;;;;6255774;22;19965;-49
2022/12/25 15:51:50;;;;;;;;;;;;;;;;;;6265236;22;20002;-51
2022/12/25 15:54:24;;;;;;;;;;;;;;;;;;6260019;22;19919;-54
2022/12/25 15:56:51;;;;;;;;;;;;;;;;;;6266018;22;20244;-51
2022/12/25 15:59:18;;;;;;;;;;;;;;;;;;6258974;22;19927;-46
2022/12/25 16:01:52;;;;;;;;;;;;;;;;;;6263334;22;19919;-49
2022/12/25 16:04:19;;;;;;;;;;;;;;;;;;6262726;22;19919;-51
2022/12/25 16:06:53;;;;;;;;;;;;;;;;;;6262164;22;20232;-51
2022/12/25 16:09:20;;;;;;;;;;;;;;;;;;6265184;22;20456;-51
2022/12/25 16:11:47;;;;;;;;;;;;;;;;;;6233830;22;19915;-51
2022/12/25 16:14:21;;;;;;;;;;;;;;;;;;6265494;22;19921;-60
2022/12/25 16:16:48;;;;;;;;;;;;;;;;;;6264499;22;19951;-61
2022/12/25 16:19:22;;;;;;;;;;;;;;;;;;6264808;22;20392;-61
2022/12/25 16:21:49;;;;;;;;;;;;;;;;;;6266785;22;19925;-61
2022/12/25 16:24:16;;;;;;;;;;;;;;;;;;6264503;22;20289;-61
2022/12/25 16:26:50;;;;;;;;;;;;;;;;;;6266262;22;20002;-61
2022/12/25 16:29:17;;;;;;;;;;;;;;;;;;6265508;22;19919;-61
2022/12/25 16:31:51;;;;;;;;;;;;;;;;;;6268514;22;19939;-54
2022/12/25 16:34:18;;;;;;;;;;;;;;;;;;6266142;22;19923;-56
2022/12/25 16:36:52;;;;;;;;;;;;;;;;;;6255624;22;19925;-60
2022/12/25 16:39:19;;;;;;;;;;;;;;;;;;6232884;22;19919;-60
2022/12/25 16:41:46;;;;;;;;;;;;;;;;;;6260156;22;20303;-60
2022/12/25 16:44:20;;;;;;;;;;;;;;;;;;6264794;22;19942;-60
2022/12/25 16:46:47;;;;;;;;;;;;;;;;;;6266004;22;20034;-60
2022/12/25 16:49:21;;;;;;;;;;;;;;;;;;6264821;22;19919;-61
2022/12/25 16:51:48;;;;;;;;;;;;;;;;;;6265235;22;20001;-62
2022/12/25 16:54:15;;;;;;;;;;;;;;;;;;6263567;22;19919;-62
2022/12/25 16:56:50;;;;;;;;;;;;;;;;;;6261971;22;19919;-62
2022/12/25 16:59:17;;;;;;;;;;;;;;;;;;6265390;22;19955;-61
2022/12/25 17:01:44;;;;;;;;;;;;;;;;;;6265086;22;19919;-61
2022/12/25 17:04:18;;;;;;;;;;;;;;;;;;6265050;22;19930;-61
2022/12/25 17:06:45;;;;;;;;;;;;;;;;;;6264546;22;20301;-61
2022/12/25 17:09:12;;;;;;;;;;;;;;;;;;6263944;22;19951;-63
2022/12/25 17:11:46;;;;;;;;;;;;;;;;;;6265772;22;19915;-53
2022/12/25 17:14:13;;;;;;;;;;;;;;;;;;6265447;22;20010;-55
2022/12/25 17:16:40;;;;;;;;;;;;;;;;;;6265881;22;20173;-51
2022/12/25 17:19:14;;;;;;;;;;;;;;;;;;6265166;22;19919;-55
2022/12/25 17:21:41;;;;;;;;;;;;;;;;;;6265786;22;19974;-58
2022/12/25 17:24:08;;;;;;;;;;;;;;;;;;6264996;22;20372;-57
2022/12/25 17:26:42;;;;;;;;;;;;;;;;;;6264047;22;19981;-61
2022/12/25 17:29:09;;;;;;;;;;;;;;;;;;6279640;22;20354;-64
2022/12/25 17:31:48;;;;;;;;;;;;;;;;;;6296020;22;19918;-64
2022/12/25 17:34:15;;;;;;;;;;;;;;;;;;6296857;22;19937;-64
2022/12/25 17:36:42;;;;;;;;;;;;;;;;;;6288991;22;19957;-63
2022/12/25 17:39:16;;;;;;;;;;;;;;;;;;6296151;22;19919;-63
2022/12/25 17:41:43;;;;;;;;;;;;;;;;;;6292651;22;19936;-64
2022/12/25 17:44:17;;;;;;;;;;;;;;;;;;6296215;22;19953;-63
2022/12/25 17:46:44;;;;;;;;;;;;;;;;;;6295456;22;19986;-64
2022/12/25 17:49:11;;;;;;;;;;;;;;;;;;6292554;22;20247;-64
2022/12/25 17:51:45;;;;;;;;;;;;;;;;;;6295868;22;19985;-63
2022/12/25 17:54:12;;;;;;;;;;;;;;;;;;6297144;22;20296;-63
2022/12/25 17:56:46;;;;;;;;;;;;;;;;;;6295946;22;20386;-64
2022/12/25 17:59:17;;;;;;;;;;;;;;;;;;6295197;22;19983;-64
2022/12/25 18:01:45;;;;;;;;;;;;;;;;;;6296214;22;19942;-64
2022/12/25 18:04:19;;;;;;;;;;;;;;;;;;6291723;22;19986;-64
2022/12/25 18:06:46;;;;;;;;;;;;;;;;;;6294755;22;20758;-64
2022/12/25 18:09:20;;;;;;;;;;;;;;;;;;6295057;22;19922;-64
2022/12/25 18:11:47;;;;;;;;;;;;;;;;;;6294033;22;20026;-64
2022/12/25 18:14:14;;;;;;;;;;;;;;;;;;6295772;22;20186;-64
2022/12/25 18:16:48;;;;;;;;;;;;;;;;;;6295744;22;19918;-63
2022/12/25 18:19:17;;;;;;;;;;;;;;;;;;6294573;22;19923;-64
2022/12/25 18:21:51;;;;;;;;;;;;;;;;;;6294813;22;19919;-64
2022/12/25 18:24:18;;;;;;;;;;;;;;;;;;6295937;22;20410;-64
2022/12/25 18:26:45;;;;;;;;;;;;;;;;;;6296488;22;20002;-65
2022/12/25 18:29:19;;;;;;;;;;;;;;;;;;6295758;22;20353;-65
2022/12/25 18:31:46;;;;;;;;;;;;;;;;;;6296137;22;20341;-64
2022/12/25 18:34:20;;;;;;;;;;;;;;;;;;6296632;22;19922;-64
2022/12/25 18:36:47;;;;;;;;;;;;;;;;;;6297336;22;19919;-64
2022/12/25 18:39:14;;;;;;;;;;;;;;;;;;6295468;22;19994;-65
2022/12/25 18:44:33;;;;;;;;;;;;;;;;;;6296201;22;19918;-65
2022/12/25 18:47:07;;;;;;;;;;;;;;;;;;6291609;22;20001;-63
2022/12/25 18:49:34;;;;;;;;;;;;;;;;;;6296759;22;19914;-61